Time;durP1;ratioP1;P1;durP2;ratioP2;P2;SDS_P1;SDS_P2;PMS_P1;PMS_P2;Temp;Humidity;BMP_temperature;BMP_pressure;BME280_temperature;BME280_humidity;BME280_pressure;Samples;Min_cycle;Max_cycle;Signal;HPM_P1;HPM_P2
2023/01/24 00:01:00;;;;;;;47.83;18.33;;;1.70;99.90;;;;;;4156628;28;20932;-78
2023/01/24 00:03:03;;;;;;;47.87;18.80;;;1.60;99.90;;;;;;4155991;28;20458;-78
2023/01/24 00:05:07;;;;;;;44.73;17.87;;;1.70;99.90;;;;;;4152727;28;20528;-78
2023/01/24 00:07:09;;;;;;;40.47;16.93;;;1.70;99.90;;;;;;4169600;28;20816;-78
2023/01/24 00:09:11;;;;;;;40.87;16.53;;;1.70;99.90;;;;;;4170910;28;20475;-77
2023/01/24 00:11:16;;;;;;;42.80;17.97;;;1.60;99.90;;;;;;4174395;28;20923;-79
2023/01/24 00:13:18;;;;;;;45.57;18.93;;;1.70;99.90;;;;;;4156798;28;20458;-79
2023/01/24 00:15:19;;;;;;;48.80;19.80;;;1.60;99.90;;;;;;4153433;28;20477;-79
2023/01/24 00:17:21;;;;;;;42.87;18.50;;;1.60;99.90;;;;;;4155093;28;20517;-81
2023/01/24 00:19:23;;;;;;;47.37;19.17;;;1.60;99.90;;;;;;4160471;28;20477;-79
2023/01/24 00:21:27;;;;;;;43.23;18.63;;;1.60;99.90;;;;;;4155350;28;20482;-77
2023/01/24 00:23:29;;;;;;;44.97;19.33;;;1.60;99.90;;;;;;4158809;28;20511;-77
2023/01/24 00:25:31;;;;;;;47.57;19.47;;;1.60;99.90;;;;;;4160733;28;20479;-78
2023/01/24 00:27:34;;;;;;;47.80;18.97;;;1.60;99.90;;;;;;4156164;28;20454;-77
2023/01/24 00:29:36;;;;;;;42.60;18.00;;;1.60;99.90;;;;;;4150439;28;20613;-79
2023/01/24 00:31:38;;;;;;;47.00;19.67;;;1.60;99.90;;;;;;4153118;28;20472;-79
2023/01/24 00:33:40;;;;;;;49.60;19.90;;;1.60;99.90;;;;;;4177713;28;20511;-79
2023/01/24 00:35:42;;;;;;;45.63;19.20;;;1.80;99.90;;;;;;4172963;28;20972;-78
2023/01/24 00:37:46;;;;;;;43.57;19.23;;;1.60;99.90;;;;;;4177581;28;20503;-79
2023/01/24 00:39:48;;;;;;;48.63;19.73;;;1.80;99.90;;;;;;4153362;28;20464;-77
2023/01/24 00:41:50;;;;;;;47.17;19.27;;;1.60;99.90;;;;;;4168108;28;20582;-78
2023/01/24 00:43:55;;;;;;;42.17;17.63;;;1.60;99.90;;;;;;4154776;28;20461;-79
2023/01/24 00:45:57;;;;;;;51.97;19.23;;;1.60;99.90;;;;;;4150371;28;20548;-78
2023/01/24 00:47:59;;;;;;;44.97;17.97;;;1.60;99.90;;;;;;4150505;28;21170;-79
2023/01/24 00:50:01;;;;;;;43.87;17.97;;;1.60;99.90;;;;;;4154664;28;20846;-78
2023/01/24 00:52:03;;;;;;;46.87;18.10;;;1.60;99.90;;;;;;4155286;28;21185;-78
2023/01/24 00:54:06;;;;;;;44.53;16.83;;;1.50;99.90;;;;;;4155495;28;20450;-79
2023/01/24 00:56:08;;;;;;;44.43;18.10;;;1.60;99.90;;;;;;4154197;28;20484;-77
2023/01/24 00:58:11;;;;;;;46.80;19.20;;;1.50;99.90;;;;;;4154635;28;20956;-78
2023/01/24 01:00:13;;;;;;;47.40;18.70;;;1.50;99.90;;;;;;4155961;28;20462;-78
2023/01/24 01:02:15;;;;;;;40.07;17.17;;;1.60;99.90;;;;;;4146486;28;20863;-78
2023/01/24 01:04:17;;;;;;;40.73;16.57;;;1.60;99.90;;;;;;4153377;28;20580;-79
2023/01/24 01:06:19;;;;;;;43.70;17.70;;;1.60;99.90;;;;;;4152894;28;20989;-77
2023/01/24 01:08:21;;;;;;;42.90;17.73;;;1.60;99.90;;;;;;4150725;28;20462;-77
2023/01/24 01:10:25;;;;;;;46.27;18.83;;;1.50;99.90;;;;;;4155087;28;20521;-78
2023/01/24 01:12:27;;;;;;;46.70;18.87;;;1.60;99.90;;;;;;4152959;28;20454;-77
2023/01/24 01:14:29;;;;;;;43.73;17.23;;;1.50;99.90;;;;;;4155718;28;20511;-79
2023/01/24 01:16:32;;;;;;;47.10;18.90;;;1.60;99.90;;;;;;4153602;28;20466;-78
2023/01/24 01:18:35;;;;;;;42.47;17.67;;;1.50;99.90;;;;;;4157581;28;20453;-78
2023/01/24 01:20:37;;;;;;;47.70;18.40;;;1.60;99.90;;;;;;4159600;28;20522;-78
2023/01/24 01:22:39;;;;;;;43.97;17.53;;;1.60;99.90;;;;;;4151124;28;20496;-77
2023/01/24 01:24:41;;;;;;;44.67;18.10;;;1.60;99.90;;;;;;4159844;28;20983;-77
2023/01/24 01:26:44;;;;;;;40.80;17.23;;;1.60;99.90;;;;;;4155919;28;20962;-77
2023/01/24 01:28:46;;;;;;;50.10;19.70;;;1.50;99.90;;;;;;4157335;28;20812;-78
2023/01/24 01:30:52;;;;;;;45.10;17.90;;;1.50;99.90;;;;;;4160518;28;20469;-79
2023/01/24 01:32:54;;;;;;;42.60;18.00;;;1.50;99.90;;;;;;4167086;28;20523;-78
2023/01/24 01:34:56;;;;;;;44.47;18.73;;;1.60;99.90;;;;;;4153400;28;20482;-78
2023/01/24 01:36:58;;;;;;;41.20;16.73;;;1.60;99.90;;;;;;4151580;28;20976;-80
2023/01/24 01:39:00;;;;;;;44.47;18.83;;;1.50;99.90;;;;;;4153954;28;20501;-79
2023/01/24 01:41:03;;;;;;;40.20;17.60;;;1.50;99.90;;;;;;4157502;28;20672;-77
2023/01/24 01:43:13;;;;;;;42.83;17.77;;;1.50;99.90;;;;;;4159506;28;20465;-78
2023/01/24 01:45:37;;;;;;;42.33;17.40;;;1.50;99.90;;;;;;4153568;28;20469;-77
2023/01/24 01:47:39;;;;;;;44.83;18.10;;;1.50;99.90;;;;;;4151166;28;20814;-77
2023/01/24 01:49:46;;;;;;;41.80;17.50;;;1.50;99.90;;;;;;4155485;28;20473;-78
2023/01/24 01:51:51;;;;;;;41.33;17.40;;;1.50;99.90;;;;;;4152441;28;20448;-78
2023/01/24 01:53:57;;;;;;;39.57;16.63;;;1.50;99.90;;;;;;4161492;28;20472;-77
2023/01/24 01:56:06;;;;;;;35.77;17.07;;;1.60;99.90;;;;;;4161033;28;20476;-77
2023/01/24 01:58:09;;;;;;;40.10;17.67;;;1.60;99.90;;;;;;4162296;28;20460;-78
2023/01/24 02:00:14;;;;;;;41.10;16.50;;;1.50;99.90;;;;;;4160921;28;20465;-77
2023/01/24 02:02:19;;;;;;;37.73;16.47;;;1.50;99.90;;;;;;4157204;28;21260;-77
2023/01/24 02:04:23;;;;;;;38.90;17.10;;;1.60;99.90;;;;;;4163371;28;20555;-78
2023/01/24 02:06:40;;;;;;;36.50;15.57;;;1.50;99.90;;;;;;4160340;28;20469;-78
2023/01/24 02:08:43;;;;;;;43.13;18.47;;;1.50;99.90;;;;;;4161011;28;20508;-77
2023/01/24 02:13:05;;;;;;;42.93;17.40;;;1.50;99.90;;;;;;4158423;28;20542;-78
2023/01/24 02:17:32;;;;;;;39.23;16.17;;;1.50;99.90;;;;;;4154531;28;20982;-78
2023/01/24 02:19:51;;;;;;;37.73;16.47;;;1.50;99.90;;;;;;4162118;28;20503;-78
2023/01/24 02:21:58;;;;;;;40.20;16.70;;;1.50;99.90;;;;;;4163818;28;20487;-78
2023/01/24 02:24:06;;;;;;;39.47;16.23;;;1.50;99.90;;;;;;4158599;28;20507;-80
2023/01/24 02:26:11;;;;;;;41.80;17.17;;;1.50;99.90;;;;;;4162649;28;20486;-78
2023/01/24 02:28:13;;;;;;;38.17;15.17;;;1.50;99.90;;;;;;4160654;28;20470;-77
2023/01/24 02:30:15;;;;;;;40.20;16.30;;;1.50;99.90;;;;;;4161239;28;20553;-78
2023/01/24 02:32:18;;;;;;;42.03;16.10;;;1.50;99.90;;;;;;4159485;28;20476;-77
2023/01/24 02:34:20;;;;;;;42.03;16.17;;;1.50;99.90;;;;;;4167348;28;20452;-78
2023/01/24 02:36:26;;;;;;;39.53;15.77;;;1.50;99.90;;;;;;4157399;28;20519;-78
2023/01/24 02:38:30;;;;;;;40.53;16.43;;;1.50;99.90;;;;;;4160845;28;20488;-77
2023/01/24 02:40:33;;;;;;;36.77;15.43;;;1.50;99.90;;;;;;4161219;28;20500;-79
2023/01/24 02:42:39;;;;;;;37.03;16.17;;;1.50;99.90;;;;;;4157974;28;20494;-77
2023/01/24 02:44:45;;;;;;;39.73;16.87;;;1.50;99.90;;;;;;4154967;28;20576;-77
2023/01/24 02:46:47;;;;;;;40.87;16.70;;;1.50;99.90;;;;;;4153909;28;20561;-77
2023/01/24 02:48:51;;;;;;;39.77;16.27;;;1.50;99.90;;;;;;4156511;28;20999;-77
2023/01/24 02:53:30;;;;;;;36.63;15.07;;;1.40;99.90;;;;;;4159130;28;20464;-78
2023/01/24 02:55:33;;;;;;;40.10;15.50;;;1.40;99.90;;;;;;4159569;28;20916;-79
2023/01/24 02:59:55;;;;;;;34.60;14.37;;;1.40;99.90;;;;;;4161688;28;20799;-77
2023/01/24 03:01:57;;;;;;;45.57;16.23;;;1.40;99.90;;;;;;4157127;28;20583;-78
2023/01/24 03:03:59;;;;;;;36.57;15.40;;;1.40;99.90;;;;;;4154472;28;20843;-79
2023/01/24 03:06:01;;;;;;;33.67;15.17;;;1.40;99.90;;;;;;4155001;28;20903;-77
2023/01/24 03:08:03;;;;;;;36.13;16.27;;;1.40;99.90;;;;;;4155710;28;20501;-77
2023/01/24 03:10:06;;;;;;;40.67;16.83;;;1.40;99.90;;;;;;4157465;28;20453;-78
2023/01/24 03:35:25;;;;;;;35.17;14.63;;;1.40;99.90;;;;;;4158157;28;20484;-77
2023/01/24 03:39:59;;;;;;;31.90;15.07;;;1.40;99.90;;;;;;4173212;28;20449;-78
2023/01/24 03:42:01;;;;;;;35.23;14.37;;;1.40;99.90;;;;;;4172400;28;20483;-78
2023/01/24 03:44:03;;;;;;;35.57;14.73;;;1.40;99.90;;;;;;4161528;28;20477;-78
2023/01/24 03:46:07;;;;;;;31.17;13.70;;;1.40;99.90;;;;;;4160429;28;20538;-78
2023/01/24 03:48:12;;;;;;;36.67;14.93;;;1.40;99.90;;;;;;4162569;28;20449;-77
2023/01/24 03:52:34;;;;;;;34.07;14.50;;;1.40;99.90;;;;;;4156204;28;20622;-77
2023/01/24 03:54:36;;;;;;;34.87;14.07;;;1.40;99.90;;;;;;4159819;28;20840;-77
2023/01/24 03:56:38;;;;;;;32.97;13.77;;;1.40;99.90;;;;;;4157677;28;20459;-77
2023/01/24 03:58:40;;;;;;;36.10;14.60;;;1.40;99.90;;;;;;4156886;28;21259;-79
2023/01/24 04:00:42;;;;;;;36.63;14.93;;;1.40;99.90;;;;;;4154146;28;20468;-77
2023/01/24 04:02:45;;;;;;;33.53;13.73;;;1.40;99.90;;;;;;4174242;28;20500;-77
2023/01/24 04:07:07;;;;;;;35.37;14.07;;;1.30;99.90;;;;;;4161198;28;20503;-79
2023/01/24 04:09:09;;;;;;;29.73;13.67;;;1.30;99.90;;;;;;4155584;28;20484;-77
2023/01/24 04:11:11;;;;;;;29.80;13.40;;;1.40;99.90;;;;;;4156555;28;20458;-77
2023/01/24 04:13:13;;;;;;;36.83;14.40;;;1.30;99.90;;;;;;4157902;28;20449;-77
2023/01/24 04:15:17;;;;;;;33.03;14.20;;;1.50;99.90;;;;;;4160311;28;20465;-77
2023/01/24 04:17:19;;;;;;;31.30;13.00;;;1.40;99.90;;;;;;4151034;28;21133;-79
2023/01/24 04:19:23;;;;;;;40.07;15.27;;;1.40;99.90;;;;;;4158639;28;20460;-78
2023/01/24 04:21:25;;;;;;;35.97;13.73;;;1.40;99.90;;;;;;4152474;28;20829;-77
2023/01/24 04:23:27;;;;;;;38.80;15.37;;;1.40;99.90;;;;;;4158444;28;20513;-77
2023/01/24 04:25:29;;;;;;;32.47;14.73;;;1.30;99.90;;;;;;4157463;28;20471;-77
2023/01/24 04:27:31;;;;;;;34.87;14.67;;;1.40;99.90;;;;;;4172309;28;20460;-79
2023/01/24 04:29:33;;;;;;;31.97;15.23;;;1.40;99.90;;;;;;4154787;28;20454;-79
2023/01/24 04:31:35;;;;;;;34.87;15.03;;;1.40;99.90;;;;;;4156712;28;20524;-78
2023/01/24 04:33:37;;;;;;;31.67;14.20;;;1.30;99.90;;;;;;4154593;28;20452;-79
2023/01/24 04:35:40;;;;;;;32.97;14.03;;;1.40;99.90;;;;;;4169666;28;20472;-79
2023/01/24 04:37:42;;;;;;;34.80;14.37;;;1.30;99.90;;;;;;4158404;28;20966;-78
2023/01/24 04:39:44;;;;;;;33.20;14.47;;;1.30;99.90;;;;;;4155434;28;20443;-78
2023/01/24 04:41:46;;;;;;;29.77;13.43;;;1.30;99.90;;;;;;4157553;28;20460;-78
2023/01/24 04:43:48;;;;;;;29.50;13.23;;;1.40;99.90;;;;;;4173143;28;20479;-79
2023/01/24 04:45:50;;;;;;;32.03;14.73;;;1.30;99.90;;;;;;4153599;28;20939;-79
2023/01/24 04:47:51;;;;;;;31.77;13.27;;;1.30;99.90;;;;;;4160369;28;21090;-78
2023/01/24 04:49:53;;;;;;;32.73;13.73;;;1.30;99.90;;;;;;4160492;28;20466;-78
2023/01/24 04:51:57;;;;;;;31.30;13.33;;;1.30;99.90;;;;;;4159097;28;20906;-79
2023/01/24 04:53:59;;;;;;;32.63;14.27;;;1.30;99.90;;;;;;4153525;28;20469;-80
2023/01/24 04:56:02;;;;;;;30.27;14.00;;;1.40;99.90;;;;;;4162484;28;20473;-78
2023/01/24 04:58:04;;;;;;;34.80;14.57;;;1.30;99.90;;;;;;4173991;28;20453;-79
2023/01/24 05:00:08;;;;;;;33.87;13.60;;;1.30;99.90;;;;;;4162986;28;20461;-81
2023/01/24 05:02:10;;;;;;;30.27;12.97;;;1.30;99.90;;;;;;4174592;28;20493;-77
2023/01/24 05:04:12;;;;;;;33.77;14.80;;;1.30;99.90;;;;;;4153075;28;20459;-80
2023/01/24 05:06:14;;;;;;;29.77;13.30;;;1.30;99.90;;;;;;4157125;28;20461;-79
2023/01/24 05:08:18;;;;;;;30.93;13.50;;;1.30;99.90;;;;;;4153951;28;20492;-79
2023/01/24 05:10:21;;;;;;;30.27;13.63;;;1.30;99.90;;;;;;4156616;28;20465;-81
2023/01/24 05:12:23;;;;;;;30.43;13.53;;;1.30;99.90;;;;;;4152527;28;20875;-79
2023/01/24 05:14:25;;;;;;;32.80;14.50;;;1.30;99.90;;;;;;4154315;28;20462;-78
2023/01/24 05:16:26;;;;;;;32.43;13.33;;;1.30;99.90;;;;;;4155023;28;20470;-80
2023/01/24 05:18:28;;;;;;;28.53;13.33;;;1.30;99.90;;;;;;4154124;28;20512;-79
2023/01/24 05:20:31;;;;;;;30.83;14.30;;;1.30;99.90;;;;;;4169386;28;20889;-79
2023/01/24 05:22:33;;;;;;;27.83;12.37;;;1.30;99.90;;;;;;4152343;28;21010;-78
2023/01/24 05:24:36;;;;;;;32.53;12.97;;;1.30;99.90;;;;;;4174002;28;20485;-79
2023/01/24 05:26:38;;;;;;;31.80;13.80;;;1.50;99.90;;;;;;4157921;28;20518;-80
2023/01/24 05:28:43;;;;;;;32.50;14.23;;;1.60;99.90;;;;;;4153410;28;20960;-80
2023/01/24 05:30:45;;;;;;;27.10;12.20;;;1.30;99.90;;;;;;4172553;28;20521;-78
2023/01/24 05:32:47;;;;;;;33.13;14.40;;;1.40;99.90;;;;;;4150645;28;20462;-78
2023/01/24 05:34:48;;;;;;;32.57;14.60;;;1.30;99.90;;;;;;4155814;28;20489;-79
2023/01/24 05:36:50;;;;;;;33.57;14.13;;;1.30;99.90;;;;;;4146776;28;20866;-77
2023/01/24 05:38:52;;;;;;;35.33;13.90;;;1.30;99.90;;;;;;4166799;28;20833;-76
2023/01/24 05:40:59;;;;;;;33.43;14.30;;;1.30;99.90;;;;;;4165742;28;20495;-77
2023/01/24 05:43:01;;;;;;;31.37;13.63;;;1.30;99.90;;;;;;4152998;28;20538;-77
2023/01/24 05:45:05;;;;;;;35.23;14.00;;;1.30;99.90;;;;;;4154382;28;20489;-78
2023/01/24 05:47:07;;;;;;;33.10;13.60;;;1.30;99.90;;;;;;4152274;28;20453;-77
2023/01/24 05:49:09;;;;;;;28.17;12.80;;;1.30;99.90;;;;;;4155087;28;20464;-77
2023/01/24 05:51:13;;;;;;;32.83;14.90;;;1.30;99.90;;;;;;4153522;28;20451;-81
2023/01/24 05:53:15;;;;;;;35.03;13.83;;;1.30;99.90;;;;;;4150951;28;20512;-77
2023/01/24 05:55:19;;;;;;;31.07;14.47;;;1.40;99.90;;;;;;4160318;28;20575;-80
2023/01/24 05:57:22;;;;;;;32.73;14.10;;;1.30;99.90;;;;;;4148309;28;20523;-78
2023/01/24 05:59:24;;;;;;;35.83;14.87;;;1.30;99.90;;;;;;4152495;28;20796;-79
2023/01/24 06:01:26;;;;;;;37.20;15.30;;;1.30;99.90;;;;;;4147777;28;20505;-77
2023/01/24 06:03:28;;;;;;;34.27;14.30;;;1.30;99.90;;;;;;4154897;28;20488;-77
2023/01/24 06:05:30;;;;;;;28.47;13.50;;;1.30;99.90;;;;;;4150269;28;20469;-79
2023/01/24 06:07:32;;;;;;;37.00;14.00;;;1.30;99.90;;;;;;4152894;28;20448;-80
2023/01/24 06:09:34;;;;;;;31.67;12.87;;;1.30;99.90;;;;;;4151202;28;20528;-80
2023/01/24 06:11:36;;;;;;;28.00;13.50;;;1.20;99.90;;;;;;4163667;28;20465;-77
2023/01/24 06:13:39;;;;;;;31.83;14.17;;;1.30;99.90;;;;;;4153662;28;20495;-82
2023/01/24 06:15:42;;;;;;;31.00;13.27;;;1.30;99.90;;;;;;4151669;28;20481;-79
2023/01/24 06:17:43;;;;;;;30.43;13.17;;;1.20;99.90;;;;;;4167770;28;20836;-77
2023/01/24 06:19:46;;;;;;;33.07;13.93;;;1.30;99.90;;;;;;4174681;28;20455;-77
2023/01/24 06:21:50;;;;;;;31.83;14.33;;;1.20;99.90;;;;;;4163135;28;20453;-78
2023/01/24 06:23:52;;;;;;;38.80;15.53;;;1.20;99.90;;;;;;4154377;28;20543;-77
2023/01/24 06:25:55;;;;;;;36.23;15.23;;;1.30;99.90;;;;;;4151550;28;20513;-78
2023/01/24 06:27:57;;;;;;;36.57;14.73;;;1.30;99.90;;;;;;4152147;28;20948;-77
2023/01/24 06:30:04;;;;;;;33.50;14.40;;;1.30;99.90;;;;;;4166072;28;20457;-79
2023/01/24 06:32:19;;;;;;;34.27;14.20;;;1.30;99.90;;;;;;4163990;28;20488;-79
2023/01/24 06:34:44;;;;;;;29.83;12.70;;;1.30;99.90;;;;;;4151468;28;20455;-79
2023/01/24 06:36:58;;;;;;;29.87;14.20;;;1.30;99.90;;;;;;4153950;28;20485;-78
2023/01/24 06:39:01;;;;;;;29.17;13.23;;;1.40;99.90;;;;;;4154549;28;21030;-78
2023/01/24 06:41:03;;;;;;;33.30;14.57;;;1.30;99.90;;;;;;4154610;28;20462;-77
2023/01/24 06:43:06;;;;;;;30.77;14.00;;;1.20;99.90;;;;;;4156317;28;20523;-80
2023/01/24 06:45:11;;;;;;;34.00;14.73;;;1.30;99.90;;;;;;4159014;28;20481;-78
2023/01/24 06:47:13;;;;;;;33.60;14.30;;;1.30;99.90;;;;;;4152274;28;20454;-77
2023/01/24 06:49:15;;;;;;;38.37;15.50;;;1.30;99.90;;;;;;4156154;28;20450;-78
2023/01/24 06:51:17;;;;;;;39.13;15.17;;;1.30;99.90;;;;;;4155278;28;21287;-79
2023/01/24 06:53:20;;;;;;;35.03;14.60;;;1.20;99.90;;;;;;4165804;28;20464;-79
2023/01/24 06:55:22;;;;;;;33.00;14.77;;;1.30;99.90;;;;;;4155972;28;20534;-79
2023/01/24 06:57:24;;;;;;;35.10;14.80;;;1.20;99.90;;;;;;4152059;28;20469;-80
2023/01/24 06:59:26;;;;;;;33.07;14.27;;;1.30;99.90;;;;;;4158910;28;20460;-78
2023/01/24 07:01:29;;;;;;;33.83;14.23;;;1.30;99.90;;;;;;4160962;28;20481;-77
2023/01/24 07:03:31;;;;;;;37.37;15.27;;;2.10;99.90;;;;;;4154060;28;20855;-78
2023/01/24 07:05:37;;;;;;;32.87;15.07;;;1.20;99.90;;;;;;4155468;28;20480;-77
2023/01/24 07:07:39;;;;;;;35.53;15.10;;;1.20;99.90;;;;;;4158563;28;20472;-77
2023/01/24 07:09:41;;;;;;;35.20;15.77;;;1.30;99.90;;;;;;4159399;28;20761;-76
2023/01/24 07:11:43;;;;;;;32.13;14.20;;;1.30;99.90;;;;;;4161413;28;20518;-78
2023/01/24 07:13:45;;;;;;;31.20;13.40;;;1.20;99.90;;;;;;4156168;28;20560;-78
2023/01/24 07:15:47;;;;;;;34.60;14.67;;;1.20;99.90;;;;;;4157919;28;20516;-76
2023/01/24 07:17:51;;;;;;;34.00;13.63;;;1.20;99.90;;;;;;4154774;28;20553;-77
2023/01/24 07:19:53;;;;;;;35.90;14.20;;;1.20;99.90;;;;;;4155357;28;20986;-77
2023/01/24 07:21:56;;;;;;;31.93;14.70;;;1.20;99.90;;;;;;4171414;28;20486;-77
2023/01/24 07:23:59;;;;;;;32.20;14.37;;;1.20;99.90;;;;;;4152729;28;20982;-75
2023/01/24 07:26:03;;;;;;;32.37;13.33;;;1.20;99.90;;;;;;4150963;28;20515;-76
2023/01/24 07:28:05;;;;;;;31.33;13.97;;;1.20;99.90;;;;;;4150781;28;20948;-76
2023/01/24 07:30:08;;;;;;;32.43;14.03;;;1.20;99.90;;;;;;4171122;28;20989;-79
2023/01/24 07:32:11;;;;;;;33.40;14.90;;;1.20;99.90;;;;;;4148903;28;20446;-76
2023/01/24 07:34:15;;;;;;;32.43;14.30;;;1.20;99.90;;;;;;4158223;28;20457;-77
2023/01/24 07:36:18;;;;;;;36.23;14.43;;;1.10;99.90;;;;;;4154048;28;20829;-76
2023/01/24 07:38:20;;;;;;;34.30;15.67;;;1.20;99.90;;;;;;4160070;28;20484;-78
2023/01/24 07:40:22;;;;;;;33.33;14.33;;;1.20;99.90;;;;;;4155669;28;20456;-77
2023/01/24 07:42:24;;;;;;;30.73;14.53;;;1.20;99.90;;;;;;4159761;28;20473;-79
2023/01/24 07:44:26;;;;;;;35.43;14.53;;;1.20;99.90;;;;;;4156724;28;20983;-78
2023/01/24 07:46:27;;;;;;;30.03;13.63;;;1.20;99.90;;;;;;4156655;28;20462;-77
2023/01/24 07:48:29;;;;;;;29.57;13.20;;;2.10;99.90;;;;;;4157291;28;20449;-75
2023/01/24 07:50:33;;;;;;;31.73;13.60;;;1.20;99.90;;;;;;4160420;28;20909;-80
2023/01/24 07:52:35;;;;;;;32.20;14.07;;;1.20;99.90;;;;;;4150802;28;20462;-76
2023/01/24 07:54:37;;;;;;;34.60;14.50;;;1.20;99.90;;;;;;4155412;28;20467;-75
2023/01/24 07:56:39;;;;;;;30.13;13.13;;;1.20;99.90;;;;;;4151200;28;20457;-76
2023/01/24 07:58:41;;;;;;;27.87;12.50;;;1.20;99.90;;;;;;4171495;28;20533;-78
2023/01/24 08:00:44;;;;;;;28.30;12.30;;;1.20;99.90;;;;;;4151877;28;21001;-76
2023/01/24 08:02:46;;;;;;;27.90;11.83;;;1.20;99.90;;;;;;4158276;28;20471;-75
2023/01/24 08:04:47;;;;;;;33.60;13.30;;;1.20;99.90;;;;;;4153978;28;20504;-77
2023/01/24 08:09:10;;;;;;;27.40;12.13;;;1.20;99.90;;;;;;4154983;28;20512;-75
2023/01/24 08:11:15;;;;;;;31.40;13.47;;;1.10;99.90;;;;;;4156850;28;20457;-76
2023/01/24 08:13:17;;;;;;;31.63;13.10;;;1.20;99.90;;;;;;4155545;28;20441;-76
2023/01/24 08:15:19;;;;;;;30.00;12.43;;;1.20;99.90;;;;;;4155190;28;20479;-76
2023/01/24 08:17:21;;;;;;;28.37;12.53;;;1.20;99.90;;;;;;4156784;28;20461;-77
2023/01/24 08:19:23;;;;;;;30.63;13.20;;;1.20;99.90;;;;;;4154184;28;21164;-78
2023/01/24 08:21:25;;;;;;;24.93;11.80;;;1.20;99.90;;;;;;4151485;28;20453;-77
2023/01/24 08:23:28;;;;;;;26.60;11.37;;;1.20;99.90;;;;;;4155446;28;20490;-77
2023/01/24 08:25:31;;;;;;;27.50;11.80;;;1.30;99.90;;;;;;4156508;28;20892;-76
2023/01/24 08:27:33;;;;;;;27.23;12.40;;;1.20;99.90;;;;;;4155562;28;20555;-76
2023/01/24 08:29:35;;;;;;;27.33;12.53;;;1.20;99.90;;;;;;4164356;28;21136;-75
2023/01/24 08:31:37;;;;;;;32.33;12.93;;;1.20;99.90;;;;;;4163919;28;20563;-75
2023/01/24 08:33:40;;;;;;;30.63;12.83;;;1.20;99.90;;;;;;4154935;28;20474;-79
2023/01/24 08:35:42;;;;;;;30.83;12.60;;;1.20;99.90;;;;;;4149498;28;20492;-76
2023/01/24 08:37:45;;;;;;;28.63;12.30;;;1.20;99.90;;;;;;4151395;28;20540;-77
2023/01/24 08:39:48;;;;;;;32.47;13.03;;;1.20;99.90;;;;;;4157350;28;20457;-75
2023/01/24 08:41:50;;;;;;;27.97;12.67;;;1.20;99.90;;;;;;4165663;28;20459;-77
2023/01/24 08:43:53;;;;;;;30.67;12.17;;;1.20;99.90;;;;;;4154022;28;20497;-78
2023/01/24 08:45:55;;;;;;;26.60;12.20;;;1.20;99.90;;;;;;4166539;28;20472;-78
2023/01/24 08:47:57;;;;;;;28.40;12.90;;;1.30;99.90;;;;;;4147793;28;20473;-76
2023/01/24 08:49:59;;;;;;;30.73;12.87;;;1.20;99.90;;;;;;4155257;28;20545;-77
2023/01/24 08:52:01;;;;;;;32.27;13.53;;;1.30;99.90;;;;;;4159191;28;20974;-76
2023/01/24 08:54:05;;;;;;;28.03;12.50;;;1.30;99.90;;;;;;4157698;28;20497;-76
2023/01/24 08:56:08;;;;;;;29.20;12.23;;;1.30;99.90;;;;;;4148523;28;20557;-76
2023/01/24 08:58:10;;;;;;;27.77;13.03;;;1.30;99.90;;;;;;4154339;28;20497;-75
2023/01/24 09:00:13;;;;;;;31.03;12.83;;;1.30;99.90;;;;;;4158280;28;20465;-77
2023/01/24 09:02:16;;;;;;;30.10;11.90;;;1.30;99.90;;;;;;4154510;28;20509;-76
2023/01/24 09:04:18;;;;;;;28.20;12.47;;;1.30;99.90;;;;;;4151423;28;20529;-77
2023/01/24 09:06:20;;;;;;;36.27;13.27;;;1.30;99.90;;;;;;4155799;28;20897;-77
2023/01/24 09:08:22;;;;;;;29.80;12.73;;;1.30;99.90;;;;;;4150579;28;20492;-76
2023/01/24 09:10:24;;;;;;;30.50;13.03;;;1.30;99.90;;;;;;4157528;28;20448;-77
2023/01/24 09:12:27;;;;;;;29.63;13.10;;;1.30;99.90;;;;;;4153222;28;21375;-75
2023/01/24 09:14:29;;;;;;;34.13;13.03;;;1.30;99.90;;;;;;4160006;28;20928;-78
2023/01/24 09:16:31;;;;;;;28.90;13.03;;;1.30;99.90;;;;;;4161179;28;21034;-77
2023/01/24 09:18:33;;;;;;;32.47;12.97;;;1.40;99.90;;;;;;4157781;28;20922;-75
2023/01/24 09:20:35;;;;;;;32.60;13.33;;;1.30;99.90;;;;;;4151237;28;20506;-76
2023/01/24 09:22:37;;;;;;;35.13;12.80;;;1.30;99.90;;;;;;4152268;28;20535;-76
2023/01/24 09:24:39;;;;;;;30.33;12.57;;;1.30;99.90;;;;;;4157857;28;20495;-75
2023/01/24 09:26:42;;;;;;;33.10;12.93;;;1.40;99.90;;;;;;4152158;28;20800;-76
2023/01/24 09:28:45;;;;;;;25.00;12.27;;;1.30;99.90;;;;;;4152541;28;20453;-75
2023/01/24 09:30:48;;;;;;;28.73;13.13;;;1.30;99.90;;;;;;4150960;28;20886;-75
2023/01/24 09:32:50;;;;;;;31.27;12.90;;;1.40;99.90;;;;;;4152964;28;20459;-77
2023/01/24 09:34:52;;;;;;;30.60;12.93;;;1.40;99.90;;;;;;4157797;28;20473;-78
2023/01/24 09:36:54;;;;;;;30.80;12.17;;;1.40;99.90;;;;;;4154944;28;20453;-78
2023/01/24 09:38:57;;;;;;;32.13;12.47;;;1.40;99.90;;;;;;4153902;28;20456;-79
2023/01/24 09:41:12;;;;;;;28.60;11.47;;;1.40;99.90;;;;;;4151694;28;20535;-76
2023/01/24 09:43:22;;;;;;;30.43;12.63;;;1.40;99.90;;;;;;4147061;28;20462;-76
2023/01/24 09:45:31;;;;;;;29.70;12.83;;;1.40;99.90;;;;;;4154281;28;20465;-78
2023/01/24 09:47:42;;;;;;;30.57;12.53;;;1.40;99.90;;;;;;4155124;28;20967;-77
2023/01/24 09:49:50;;;;;;;32.17;13.27;;;1.40;99.90;;;;;;4157979;28;20451;-80
2023/01/24 09:51:54;;;;;;;35.57;13.87;;;1.40;99.90;;;;;;4156057;28;21563;-78
2023/01/24 09:53:59;;;;;;;36.07;14.53;;;1.40;99.90;;;;;;4158798;28;20477;-79
2023/01/24 09:56:04;;;;;;;35.03;13.27;;;1.40;99.90;;;;;;4160429;28;21061;-79
2023/01/24 09:58:18;;;;;;;32.53;12.87;;;1.50;99.90;;;;;;4156490;28;20497;-78
2023/01/24 10:00:25;;;;;;;36.70;13.87;;;1.50;99.90;;;;;;4153903;28;20474;-79
2023/01/24 10:02:29;;;;;;;32.53;13.07;;;1.50;99.90;;;;;;4159556;28;20532;-80
2023/01/24 10:04:35;;;;;;;36.70;13.63;;;1.50;99.90;;;;;;4153551;28;20491;-80
2023/01/24 10:06:39;;;;;;;32.23;12.57;;;1.50;99.90;;;;;;4155486;28;20458;-79
2023/01/24 10:08:48;;;;;;;34.07;13.00;;;1.50;99.90;;;;;;4169585;28;20459;-77
2023/01/24 10:11:03;;;;;;;43.93;13.83;;;1.50;99.90;;;;;;4170893;28;20848;-79
2023/01/24 10:13:15;;;;;;;36.37;13.70;;;1.50;99.90;;;;;;4156695;28;21043;-79
2023/01/24 10:15:29;;;;;;;31.03;12.80;;;1.50;99.90;;;;;;4161276;28;20465;-79
2023/01/24 10:17:59;;;;;;;29.87;13.00;;;1.50;99.90;;;;;;4162867;28;20866;-78
2023/01/24 10:20:17;;;;;;;27.13;12.50;;;1.50;99.90;;;;;;4163956;28;20479;-78
2023/01/24 10:22:43;;;;;;;30.53;13.43;;;1.50;99.90;;;;;;4164658;28;20816;-78
2023/01/24 10:24:57;;;;;;;35.27;13.97;;;1.50;99.90;;;;;;4161182;28;21037;-78
2023/01/24 10:27:01;;;;;;;31.47;13.13;;;1.60;99.90;;;;;;4157775;28;20447;-79
2023/01/24 10:29:13;;;;;;;36.80;13.93;;;1.90;99.90;;;;;;4159508;28;20445;-80
2023/01/24 10:31:20;;;;;;;32.90;13.27;;;1.60;99.90;;;;;;4156972;28;20456;-79
2023/01/24 10:33:28;;;;;;;34.73;14.17;;;1.60;99.90;;;;;;4155250;28;20548;-80
2023/01/24 10:35:36;;;;;;;33.50;13.87;;;1.60;99.90;;;;;;4156046;28;20527;-78
2023/01/24 10:37:40;;;;;;;33.40;14.33;;;1.70;99.90;;;;;;4175043;28;20867;-80
2023/01/24 10:39:42;;;;;;;31.57;14.63;;;1.70;99.90;;;;;;4162247;28;20468;-80
2023/01/24 10:41:44;;;;;;;33.90;13.60;;;1.70;99.90;;;;;;4159668;28;20473;-80
2023/01/24 10:43:55;;;;;;;35.80;13.53;;;1.70;99.90;;;;;;4162630;28;20507;-80
2023/01/24 10:46:14;;;;;;;28.97;12.50;;;1.70;99.90;;;;;;4159311;28;20469;-80
2023/01/24 10:48:30;;;;;;;32.67;12.90;;;1.70;99.90;;;;;;4160265;28;20461;-80
2023/01/24 10:50:41;;;;;;;33.27;13.00;;;1.70;99.90;;;;;;4163580;28;20492;-79
2023/01/24 10:52:46;;;;;;;33.67;14.63;;;1.80;99.90;;;;;;4155302;28;20461;-79
2023/01/24 10:54:52;;;;;;;32.80;13.27;;;1.80;99.90;;;;;;4157126;28;20933;-79
2023/01/24 10:56:55;;;;;;;30.97;13.50;;;1.80;99.90;;;;;;4161496;28;20465;-79
2023/01/24 10:59:00;;;;;;;33.73;12.97;;;1.80;99.90;;;;;;4164445;28;20472;-79
2023/01/24 11:01:07;;;;;;;32.23;14.43;;;1.80;99.90;;;;;;4170073;28;20499;-79
2023/01/24 11:03:19;;;;;;;29.60;13.67;;;1.80;99.90;;;;;;4158178;28;20454;-80
2023/01/24 11:05:24;;;;;;;34.93;14.37;;;2.70;99.90;;;;;;4156774;28;20485;-78
2023/01/24 11:07:31;;;;;;;36.20;14.43;;;2.10;99.90;;;;;;4169985;28;20910;-78
2023/01/24 11:09:35;;;;;;;36.27;14.17;;;1.90;99.90;;;;;;4155437;28;20508;-78
2023/01/24 11:11:43;;;;;;;31.30;14.20;;;1.80;99.90;;;;;;4158350;28;20850;-80
2023/01/24 11:13:45;;;;;;;34.27;15.10;;;1.80;99.90;;;;;;4159474;28;20461;-79
2023/01/24 11:15:51;;;;;;;43.40;14.80;;;1.90;99.90;;;;;;4158534;28;20500;-79
2023/01/24 11:17:59;;;;;;;31.67;13.47;;;2.20;99.90;;;;;;4153324;28;20459;-79